Time;durP1;ratioP1;P1;durP2;ratioP2;P2;SDS_P1;SDS_P2;PMS_P1;PMS_P2;Temp;Humidity;BMP_temperature;BMP_pressure;BME280_temperature;BME280_humidity;BME280_pressure;Samples;Min_cycle;Max_cycle;Signal;HPM_P1;HPM_P2
2023/07/05 00:00:17;;;;;;;;;6.00;6.00;;;;;22.61;50.00;99125.13;5093176;27;45616;-57
2023/07/05 00:02:45;;;;;;;;;5.20;4.00;;;;;22.58;50.48;99128.09;5092502;27;46480;-57
2023/07/05 00:05:11;;;;;;;;;4.00;4.00;;;;;22.53;50.34;99128.50;5094309;27;45459;-57
2023/07/05 00:07:37;;;;;;;;;5.00;4.00;;;;;22.51;50.74;99126.91;5095277;27;45369;-57
2023/07/05 00:10:03;;;;;;;;;4.00;4.00;;;;;22.50;50.98;99127.91;5088073;27;45505;-59
2023/07/05 00:12:28;;;;;;;;;3.75;3.00;;;;;22.48;50.61;99133.41;5095531;27;45449;-59
2023/07/05 00:14:55;;;;;;;;;4.00;3.00;;;;;22.42;51.21;99128.59;5094067;27;45405;-59
2023/07/05 00:17:20;;;;;;;;;4.80;3.60;;;;;22.40;51.54;99125.19;5096214;27;45480;-59
2023/07/05 00:19:50;;;;;;;;;5.00;5.00;;;;;22.38;52.08;99120.94;5095143;27;45270;-59
2023/07/05 00:22:16;;;;;;;;;3.00;3.00;;;;;22.41;52.36;99118.84;5095808;27;45578;-59
2023/07/05 00:24:41;;;;;;;;;6.00;6.00;;;;;22.43;52.49;99118.72;5093958;27;45466;-59
2023/07/05 00:27:08;;;;;;;;;4.75;4.75;;;;;22.40;53.15;99105.53;5093369;27;45382;-57
2023/07/05 00:29:33;;;;;;;;;3.50;3.50;;;;;22.38;52.70;99105.69;5090487;27;45478;-57
2023/07/05 00:31:58;;;;;;;;;4.00;4.00;;;;;22.34;52.96;99098.03;5094134;27;45561;-59
2023/07/05 00:34:24;;;;;;;;;5.00;4.00;;;;;22.32;53.04;99095.47;5094834;27;45291;-59
2023/07/05 00:36:49;;;;;;;;;3.25;3.00;;;;;22.32;54.11;99106.22;5086656;27;45309;-59
2023/07/05 00:39:15;;;;;;;;;5.00;4.50;;;;;22.32;53.78;99106.22;5094701;27;45621;-59
2023/07/05 00:41:40;;;;;;;;;4.75;4.00;;;;;22.33;53.97;99105.22;5087501;27;46349;-60
2023/07/05 00:44:06;;;;;;;;;4.50;3.00;;;;;22.34;54.78;99100.72;5095079;27;45510;-58
2023/07/05 00:46:35;;;;;;;;;4.00;3.00;;;;;22.34;55.19;99103.38;5095567;27;45564;-59
2023/07/05 00:49:11;;;;;;;;;3.25;3.25;;;;;22.33;55.34;99102.53;5093796;27;45443;-59
2023/07/05 00:51:56;;;;;;;;;5.00;4.60;;;;;22.31;55.35;99100.97;5094500;27;45706;-59
2023/07/05 00:54:27;;;;;;;;;6.40;4.60;;;;;22.28;55.37;99099.44;5086478;27;45456;-58
2023/07/05 00:57:05;;;;;;;;;3.20;2.80;;;;;22.24;55.84;99092.63;5095326;27;45580;-59
2023/07/05 00:59:36;;;;;;;;;5.00;4.50;;;;;22.21;56.21;99096.44;5093899;27;45568;-59
2023/07/05 01:02:02;;;;;;;;;4.00;4.00;;;;;22.16;56.51;99093.28;5095206;27;46276;-59
2023/07/05 01:04:28;;;;;;;;;3.50;3.50;;;;;22.12;56.91;99094.53;5094067;27;45505;-59
2023/07/05 01:06:53;;;;;;;;;4.00;4.00;;;;;22.10;56.72;99098.38;5095343;27;45465;-59
2023/07/05 01:09:19;;;;;;;;;4.00;4.00;;;;;22.11;56.94;99095.56;5089809;27;45554;-59
2023/07/05 01:11:58;;;;;;;;;6.60;6.00;;;;;22.12;57.36;99101.78;5092270;27;47304;-59
2023/07/05 01:14:44;;;;;;;;;6.80;4.20;;;;;22.15;56.92;99099.66;5089566;27;45466;-59
2023/07/05 01:17:38;;;;;;;;;5.60;4.40;;;;;22.17;57.23;99099.50;5094171;27;45502;-59
2023/07/05 01:20:09;;;;;;;;;5.00;5.00;;;;;22.20;57.29;99108.16;5081357;27;45539;-59
2023/07/05 01:23:11;;;;;;;;;4.00;3.00;;;;;22.25;57.14;99100.56;5086445;27;48340;-59
2023/07/05 01:26:02;;;;;;;;;1.00;1.00;;;;;22.30;57.47;99102.81;5093916;27;45461;-58
2023/07/05 01:28:44;;;;;;;;;6.20;4.60;;;;;22.34;57.84;99119.50;5087970;27;45374;-59
2023/07/05 01:31:28;;;;;;;;;7.40;6.00;;;;;22.36;57.21;99112.16;5094381;27;45617;-59
2023/07/05 01:34:18;;;;;;;;;8.00;6.20;;;;;22.35;58.00;99116.69;5089877;27;45602;-59
2023/07/05 01:36:44;;;;;;;;;5.20;5.20;;;;;22.29;57.52;99112.69;5084310;27;45409;-59
2023/07/05 01:39:09;;;;;;;;;6.75;6.00;;;;;22.29;57.91;99118.06;5094272;27;45494;-59
2023/07/05 01:41:35;;;;;;;;;6.75;5.50;;;;;22.28;57.93;99110.19;5089256;27;45510;-59
2023/07/05 01:44:01;;;;;;;;;4.00;3.75;;;;;22.27;58.33;99111.16;5092529;27;46172;-59
2023/07/05 01:46:29;;;;;;;;;5.00;4.00;;;;;22.29;58.87;99110.00;5089691;27;45385;-59
2023/07/05 01:49:35;;;;;;;;;5.80;5.00;;;;;22.28;58.54;99105.66;5093785;27;45509;-59
2023/07/05 01:52:45;;;;;;;;;7.00;5.00;;;;;22.22;59.39;99113.41;5094626;27;45544;-58
2023/07/05 01:55:20;;;;;;;;;5.80;5.20;;;;;22.19;59.68;99109.13;5050450;28;46905;-59
2023/07/05 01:57:54;;;;;;;;;5.00;5.00;;;;;22.20;60.00;99097.41;5086352;27;45273;-59
2023/07/05 02:00:23;;;;;;;;;5.00;5.00;;;;;22.20;60.19;99101.94;5093153;27;45344;-59
2023/07/05 02:03:01;;;;;;;;;6.60;5.40;;;;;22.20;59.92;99104.63;5095440;27;45541;-59
2023/07/05 02:05:28;;;;;;;;;5.00;5.00;;;;;22.19;60.16;99110.97;5093234;27;45523;-59
2023/07/05 02:07:54;;;;;;;;;5.00;3.40;;;;;22.19;60.32;99108.28;5097366;27;45490;-59
2023/07/05 02:10:21;;;;;;;;;2.00;1.00;;;;;22.19;60.45;99111.81;5088666;27;45383;-59
2023/07/05 02:12:48;;;;;;;;;5.40;5.40;;;;;22.18;60.16;99102.06;5097809;27;45355;-59
2023/07/05 02:15:14;;;;;;;;;8.40;6.40;;;;;22.18;60.24;99098.53;5095370;27;46826;-59
2023/07/05 02:17:39;;;;;;;;;5.00;5.00;;;;;22.16;59.93;99093.28;5097936;27;45426;-59
2023/07/05 02:20:06;;;;;;;;;6.50;5.25;;;;;22.14;60.60;99097.94;5097729;27;45375;-59
2023/07/05 02:22:31;;;;;;;;;5.00;5.00;;;;;22.10;60.52;99088.47;5097325;27;45492;-59
2023/07/05 02:24:57;;;;;;;;;6.25;4.00;;;;;22.04;60.51;99090.84;5097078;27;45536;-59
2023/07/05 02:27:22;;;;;;;;;4.75;4.75;;;;;22.03;60.56;99091.81;5098031;27;45383;-59
2023/07/05 02:29:48;;;;;;;;;4.00;4.00;;;;;22.03;60.81;99098.03;5092746;27;45395;-59
2023/07/05 02:32:13;;;;;;;;;5.75;5.00;;;;;22.01;60.62;99099.16;5090965;27;45461;-59
2023/07/05 02:34:40;;;;;;;;;3.50;3.50;;;;;21.99;60.90;99106.47;5091734;27;45440;-59
2023/07/05 02:37:07;;;;;;;;;5.60;4.60;;;;;21.99;61.15;99110.00;5092209;27;45387;-59
2023/07/05 02:39:34;;;;;;;;;5.00;5.00;;;;;21.98;61.53;99094.88;5096463;27;45444;-59
2023/07/05 02:41:59;;;;;;;;;5.60;4.40;;;;;21.95;61.13;99104.03;5096148;27;45534;-59
2023/07/05 02:44:25;;;;;;;;;5.00;4.50;;;;;21.95;61.35;99095.97;5095645;27;45996;-59
2023/07/05 02:46:50;;;;;;;;;8.75;5.25;;;;;21.93;61.14;99102.50;5095074;27;45440;-59
2023/07/05 02:49:16;;;;;;;;;5.75;5.00;;;;;21.91;61.38;99109.81;5097220;27;45419;-59
2023/07/05 02:51:41;;;;;;;;;5.25;5.25;;;;;21.89;61.75;99107.28;5097460;27;45602;-59
2023/07/05 02:54:08;;;;;;;;;5.00;4.25;;;;;21.86;61.59;99110.22;5096372;27;45430;-59
2023/07/05 02:56:33;;;;;;;;;6.60;6.40;;;;;21.84;62.21;99111.34;5095829;27;45467;-59
2023/07/05 02:58:58;;;;;;;;;4.00;4.00;;;;;21.83;62.15;99112.31;5107696;27;45586;-59
2023/07/05 03:01:25;;;;;;;;;5.50;5.50;;;;;21.83;61.89;99120.38;5093155;27;45465;-59
2023/07/05 03:03:51;;;;;;;;;6.80;5.00;;;;;21.78;62.12;99107.38;5095967;27;45428;-59
2023/07/05 03:06:16;;;;;;;;;5.00;5.00;;;;;21.75;62.53;99117.50;5096714;27;45369;-59
2023/07/05 03:08:42;;;;;;;;;3.00;2.50;;;;;21.73;62.42;99119.47;5096284;27;45321;-59
2023/07/05 03:11:07;;;;;;;;;4.75;4.75;;;;;21.69;62.91;99112.66;5096272;27;45541;-59
2023/07/05 03:13:33;;;;;;;;;6.25;5.25;;;;;21.63;62.80;99113.16;5096022;27;45570;-59
2023/07/05 03:16:00;;;;;;;;;8.80;6.00;;;;;21.61;62.99;99112.47;5112898;27;45495;-59
2023/07/05 03:18:26;;;;;;;;;7.40;7.00;;;;;21.59;62.54;99126.88;5095181;27;45569;-59
2023/07/05 03:20:53;;;;;;;;;5.80;4.00;;;;;21.53;62.82;99127.38;5112353;27;45534;-59
2023/07/05 03:23:19;;;;;;;;;4.00;4.00;;;;;21.47;63.64;99127.03;5094278;27;45380;-59
2023/07/05 03:26:07;;;;;;;;;5.25;5.25;;;;;21.44;63.55;99132.69;5096944;27;45396;-59
2023/07/05 03:28:33;;;;;;;;;5.00;5.00;;;;;21.35;64.49;99130.78;5090345;27;45498;-59
2023/07/05 03:31:11;;;;;;;;;6.00;6.00;;;;;21.27;64.44;99138.63;5084854;27;45577;-59
2023/07/05 03:33:36;;;;;;;;;6.25;5.75;;;;;21.23;64.72;99148.75;5093874;27;46510;-59
2023/07/05 03:36:10;;;;;;;;;7.00;6.00;;;;;21.20;65.05;99147.16;5096434;27;45369;-58
2023/07/05 03:38:35;;;;;;;;;8.25;7.00;;;;;21.16;65.34;99145.69;5095432;27;45439;-59
2023/07/05 03:41:01;;;;;;;;;5.50;5.50;;;;;21.09;65.03;99146.34;5094075;27;45350;-59
2023/07/05 03:43:28;;;;;;;;;5.00;5.00;;;;;21.07;64.95;99154.50;5095520;27;46588;-59
2023/07/05 03:45:54;;;;;;;;;5.20;4.60;;;;;21.09;65.43;99154.38;5096577;27;45417;-59
2023/07/05 03:48:21;;;;;;;;;5.00;5.00;;;;;21.08;65.12;99166.94;5095487;27;45507;-59
2023/07/05 03:50:46;;;;;;;;;7.25;7.25;;;;;21.06;65.77;99168.03;5091377;27;45411;-59
2023/07/05 03:53:11;;;;;;;;;7.00;6.25;;;;;21.04;65.66;99170.84;5095063;27;45450;-59
2023/07/05 03:55:37;;;;;;;;;6.00;6.00;;;;;21.02;65.82;99178.16;5093370;27;45347;-59
2023/07/05 03:58:02;;;;;;;;;6.25;5.50;;;;;21.00;65.87;99174.72;5094198;27;45476;-59
2023/07/05 04:00:28;;;;;;;;;5.75;5.75;;;;;20.98;66.20;99165.09;5093493;27;45487;-59
2023/07/05 04:02:53;;;;;;;;;6.00;6.00;;;;;21.00;66.01;99174.72;5095460;27;46460;-59
2023/07/05 04:05:19;;;;;;;;;4.75;4.75;;;;;21.00;66.29;99173.88;5092036;27;45669;-59
2023/07/05 04:07:44;;;;;;;;;8.00;7.00;;;;;20.98;66.52;99170.47;5094131;27;45409;-59
2023/07/05 04:10:10;;;;;;;;;8.00;7.00;;;;;20.95;66.08;99176.09;5086554;27;45539;-59
2023/07/05 04:12:35;;;;;;;;;6.50;6.50;;;;;20.97;66.50;99174.13;5095271;27;46349;-59
2023/07/05 04:15:01;;;;;;;;;6.75;6.25;;;;;20.99;66.38;99177.53;5093784;27;45773;-58
2023/07/05 04:17:30;;;;;;;;;6.00;5.50;;;;;21.01;66.07;99173.75;5095076;27;46128;-59
2023/07/05 04:19:55;;;;;;;;;9.00;6.50;;;;;21.00;66.35;99182.78;5094327;27;45355;-59
2023/07/05 04:22:21;;;;;;;;;6.50;5.25;;;;;21.02;66.39;99178.16;5090659;27;47807;-59
2023/07/05 04:24:46;;;;;;;;;7.00;6.00;;;;;21.02;66.62;99186.19;5094171;27;45376;-59
2023/07/05 04:27:12;;;;;;;;;8.75;8.00;;;;;21.00;66.71;99177.41;5095132;27;45836;-59
2023/07/05 04:29:38;;;;;;;;;7.00;5.00;;;;;20.97;66.59;99190.22;5090509;27;45512;-59
2023/07/05 04:32:04;;;;;;;;;7.75;6.50;;;;;20.94;66.43;99183.28;5083264;27;45448;-59
2023/07/05 04:34:29;;;;;;;;;6.50;5.00;;;;;20.94;66.82;99188.66;5087786;27;45400;-59
2023/07/05 04:36:54;;;;;;;;;9.25;7.00;;;;;20.95;66.86;99186.84;5087292;27;45438;-59
2023/07/05 04:39:20;;;;;;;;;6.00;5.25;;;;;21.00;66.63;99193.50;5089659;27;45584;-59
2023/07/05 04:41:45;;;;;;;;;5.50;5.50;;;;;21.05;66.06;99185.94;5084463;27;45393;-59
2023/07/05 04:44:10;;;;;;;;;6.75;5.25;;;;;21.12;66.25;99188.94;5087262;27;45700;-59
2023/07/05 04:46:36;;;;;;;;;4.50;3.75;;;;;21.16;65.79;99190.41;5092289;27;45464;-59
2023/07/05 04:49:02;;;;;;;;;8.25;6.50;;;;;21.19;65.74;99188.38;5093802;27;45596;-59
2023/07/05 04:51:29;;;;;;;;;8.00;6.75;;;;;21.25;66.10;99187.03;5093082;27;46271;-59
2023/07/05 04:53:54;;;;;;;;;9.00;9.00;;;;;21.28;65.86;99192.13;5093406;27;45402;-59
2023/07/05 04:56:20;;;;;;;;;4.25;4.25;;;;;21.27;65.65;99192.25;5093960;27;45726;-59
2023/07/05 04:58:48;;;;;;;;;5.25;5.25;;;;;21.26;65.47;99186.03;5094559;27;45366;-59
2023/07/05 05:01:13;;;;;;;;;8.00;6.00;;;;;21.32;65.72;99190.03;5092448;27;47334;-59
2023/07/05 05:03:39;;;;;;;;;8.00;6.75;;;;;21.33;65.33;99189.03;5093388;27;45502;-59
2023/07/05 05:06:04;;;;;;;;;8.00;8.00;;;;;21.34;65.35;99196.97;5089907;27;45425;-59
2023/07/05 05:08:30;;;;;;;;;8.50;7.75;;;;;21.34;64.51;99196.13;5083986;27;45498;-59
2023/07/05 05:10:58;;;;;;;;;7.00;6.00;;;;;21.32;64.64;99203.44;5089825;27;47071;-59
2023/07/05 05:13:24;;;;;;;;;7.80;6.80;;;;;21.27;65.45;99208.34;5091422;27;45398;-59
2023/07/05 05:15:50;;;;;;;;;7.50;6.00;;;;;21.24;65.41;99202.25;5105846;27;45371;-59
2023/07/05 05:18:16;;;;;;;;;6.00;6.00;;;;;21.24;65.39;99206.75;5082886;27;45636;-59
2023/07/05 05:20:42;;;;;;;;;5.00;5.00;;;;;21.24;65.12;99210.31;5086026;27;45682;-59
2023/07/05 05:23:09;;;;;;;;;9.00;6.75;;;;;21.26;65.48;99212.84;5093015;27;45337;-61
2023/07/05 05:25:36;;;;;;;;;7.00;7.00;;;;;21.26;65.49;99212.84;5090128;27;45477;-59
2023/07/05 05:28:01;;;;;;;;;9.25;7.50;;;;;21.27;65.55;99213.72;5093601;27;45483;-58
2023/07/05 05:30:27;;;;;;;;;7.50;7.50;;;;;21.26;65.92;99215.53;5089378;27;46416;-59
2023/07/05 05:32:52;;;;;;;;;7.00;6.25;;;;;21.28;66.13;99215.41;5093941;27;45441;-70
2023/07/05 05:35:18;;;;;;;;;8.50;8.00;;;;;21.34;65.54;99212.22;5092909;27;45318;-68
2023/07/05 05:37:43;;;;;;;;;6.50;6.50;;;;;21.37;65.12;99210.13;5090789;27;45376;-69
2023/07/05 05:40:10;;;;;;;;;7.00;5.50;;;;;21.37;65.47;99210.13;5091257;27;45623;-69
2023/07/05 05:42:36;;;;;;;;;8.20;6.20;;;;;21.37;65.41;99207.44;5090351;27;45608;-69
2023/07/05 05:45:05;;;;;;;;;6.00;5.25;;;;;21.38;65.92;99217.19;5078963;27;45500;-69
2023/07/05 05:47:31;;;;;;;;;6.25;6.25;;;;;21.41;64.85;99218.78;5087133;27;45468;-69
2023/07/05 05:49:56;;;;;;;;;7.25;7.25;;;;;21.38;64.84;99219.03;5092070;27;45490;-69
2023/07/05 05:52:22;;;;;;;;;13.50;10.50;;;;;21.35;64.43;99206.72;5086620;27;45455;-69
2023/07/05 05:54:47;;;;;;;;;9.50;7.25;;;;;21.32;65.30;99208.78;5085863;27;45421;-69
2023/07/05 05:57:13;;;;;;;;;9.50;9.25;;;;;21.35;65.01;99197.81;5089700;27;45371;-69
2023/07/05 05:59:39;;;;;;;;;10.00;9.25;;;;;21.39;64.76;99210.84;5092649;27;46411;-69
2023/07/05 06:02:04;;;;;;;;;8.50;8.25;;;;;21.42;64.96;99205.25;5090764;27;45396;-69
2023/07/05 06:04:31;;;;;;;;;11.00;10.00;;;;;21.47;64.98;99211.06;5089997;27;45396;-69
2023/07/05 06:06:56;;;;;;;;;10.00;7.25;;;;;21.51;64.99;99207.13;5089590;27;45416;-69
2023/07/05 06:09:24;;;;;;;;;9.75;8.00;;;;;21.54;64.74;99203.34;5086264;27;45558;-69
2023/07/05 06:11:50;;;;;;;;;10.60;8.40;;;;;21.57;64.45;99203.09;5087196;27;45459;-64
2023/07/05 06:14:15;;;;;;;;;8.00;8.00;;;;;21.61;64.08;99212.59;5089603;27;45411;-64
2023/07/05 06:16:40;;;;;;;;;8.00;7.25;;;;;21.65;63.93;99213.19;5075826;27;45501;-64
2023/07/05 06:19:06;;;;;;;;;7.75;7.75;;;;;21.70;64.27;99216.34;5089685;27;47319;-64
2023/07/05 06:21:32;;;;;;;;;8.75;8.00;;;;;21.72;64.32;99220.59;5092976;27;45692;-64
2023/07/05 06:23:57;;;;;;;;;6.25;6.25;;;;;21.76;64.75;99211.31;5088156;27;45736;-64
2023/07/05 06:26:23;;;;;;;;;10.25;6.50;;;;;21.76;64.35;99211.31;5093420;27;45492;-64
2023/07/05 06:28:48;;;;;;;;;8.25;8.00;;;;;21.73;64.84;99211.56;5088453;27;45381;-64
2023/07/05 06:31:16;;;;;;;;;11.00;8.25;;;;;21.72;64.96;99215.22;5086952;27;45376;-64
2023/07/05 06:33:41;;;;;;;;;7.50;7.50;;;;;21.74;65.00;99207.91;5090436;27;45415;-64
2023/07/05 06:36:08;;;;;;;;;8.75;7.25;;;;;21.77;65.24;99214.84;5087221;27;45448;-64
2023/07/05 06:38:35;;;;;;;;;7.50;7.00;;;;;21.78;64.79;99206.66;5090758;27;48086;-64
2023/07/05 06:41:00;;;;;;;;;9.00;7.60;;;;;21.80;64.75;99218.09;5089395;27;45466;-64
2023/07/05 06:43:26;;;;;;;;;9.50;7.00;;;;;21.79;64.79;99218.22;5092249;27;45446;-64
2023/07/05 06:45:54;;;;;;;;;9.00;9.00;;;;;21.78;64.72;99214.72;5092162;27;45478;-64
2023/07/05 06:48:21;;;;;;;;;6.00;6.00;;;;;21.76;64.82;99216.69;5095534;27;46681;-64
2023/07/05 06:50:54;;;;;;;;;10.60;8.80;;;;;21.76;64.68;99208.63;5094221;27;45389;-64
2023/07/05 06:53:21;;;;;;;;;9.75;9.75;;;;;21.82;64.85;99213.44;5095476;27;45717;-64
2023/07/05 06:55:48;;;;;;;;;8.00;8.00;;;;;21.90;64.44;99204.75;5096314;27;45372;-66
2023/07/05 06:58:14;;;;;;;;;7.50;6.50;;;;;21.89;64.35;99201.22;5095100;27;47038;-64
2023/07/05 07:00:39;;;;;;;;;7.40;7.40;;;;;21.92;64.21;99213.53;5096076;27;45477;-64
2023/07/05 07:03:05;;;;;;;;;7.75;7.75;;;;;21.90;64.32;99215.50;5089351;27;45572;-64
2023/07/05 07:05:31;;;;;;;;;7.00;7.00;;;;;21.89;64.09;99211.97;5090158;27;45418;-64
2023/07/05 07:07:56;;;;;;;;;7.75;6.50;;;;;21.90;64.70;99219.03;5108221;27;47585;-64
2023/07/05 07:10:22;;;;;;;;;9.00;8.00;;;;;21.93;64.41;99209.88;5096333;27;45506;-64
2023/07/05 07:12:47;;;;;;;;;7.00;7.00;;;;;21.99;63.97;99206.66;5095921;27;45438;-65
2023/07/05 07:15:12;;;;;;;;;6.75;6.75;;;;;22.10;62.85;99203.94;5095247;27;45471;-64
2023/07/05 07:17:38;;;;;;;;;8.00;6.00;;;;;22.25;61.33;99215.19;5095371;27;45706;-64
2023/07/05 07:20:04;;;;;;;;;7.50;6.00;;;;;22.43;58.12;99212.75;5095527;27;45420;-64
2023/07/05 07:22:29;;;;;;;;;7.20;6.40;;;;;22.64;56.17;99200.09;5096082;27;45405;-63
2023/07/05 07:24:55;;;;;;;;;8.00;6.75;;;;;22.86;55.10;99212.50;5090147;27;45450;-64
2023/07/05 07:27:20;;;;;;;;;6.50;6.00;;;;;23.02;53.63;99207.47;5089515;27;46510;-64
2023/07/05 07:29:46;;;;;;;;;7.25;7.25;;;;;23.19;51.54;99211.31;5088920;27;45437;-63
2023/07/05 07:32:11;;;;;;;;;9.00;7.00;;;;;23.30;51.57;99214.72;5089539;27;45416;-63
2023/07/05 07:34:36;;;;;;;;;10.00;6.75;;;;;23.40;52.02;99219.28;5095247;27;45572;-64
2023/07/05 07:37:03;;;;;;;;;10.00;6.25;;;;;23.49;50.85;99230.03;5090745;27;45994;-64
2023/07/05 07:39:29;;;;;;;;;7.00;5.60;;;;;23.56;51.08;99220.47;5094414;27;45505;-63
2023/07/05 07:41:55;;;;;;;;;7.40;6.60;;;;;23.64;50.20;99208.97;5091780;27;45570;-63
2023/07/05 07:44:20;;;;;;;;;6.25;6.00;;;;;23.67;49.62;99238.31;5095217;27;45508;-63
2023/07/05 07:46:47;;;;;;;;;6.00;6.00;;;;;23.67;49.10;99225.69;5093514;27;45405;-63
2023/07/05 07:49:12;;;;;;;;;6.20;6.20;;;;;23.69;48.90;99209.41;5094745;27;45570;-63
2023/07/05 07:51:40;;;;;;;;;6.75;5.00;;;;;23.70;49.45;99216.47;5094706;27;45477;-64
2023/07/05 07:54:08;;;;;;;;;6.50;5.50;;;;;23.70;49.19;99216.47;5093248;27;45418;-64
2023/07/05 07:56:34;;;;;;;;;4.80;4.80;;;;;23.68;49.10;99226.53;5095022;27;46091;-64
2023/07/05 07:59:00;;;;;;;;;5.00;4.50;;;;;23.69;49.17;99208.53;5095435;27;45434;-64
2023/07/05 08:01:29;;;;;;;;;4.60;3.80;;;;;23.71;49.13;99233.50;5095448;27;45454;-64
2023/07/05 08:03:56;;;;;;;;;7.80;5.20;;;;;23.75;49.20;99213.38;5088424;27;45515;-64
2023/07/05 08:06:50;;;;;;;;;6.00;5.00;;;;;23.80;47.96;99216.47;5088819;27;46100;-63
2023/07/05 08:09:27;;;;;;;;;5.60;4.20;;;;;23.78;48.50;99211.25;5089716;27;45351;-64
2023/07/05 08:11:54;;;;;;;;;4.80;4.80;;;;;23.79;49.32;99210.25;5094404;27;45438;-64
2023/07/05 08:14:20;;;;;;;;;9.25;7.00;;;;;23.80;48.76;99200.31;5094375;27;45582;-64
2023/07/05 08:16:46;;;;;;;;;6.00;4.75;;;;;23.80;49.07;99198.47;5095107;27;45436;-64
2023/07/05 08:19:11;;;;;;;;;5.20;4.60;;;;;23.83;49.09;99211.66;5095111;27;45599;-63
2023/07/05 08:21:37;;;;;;;;;6.00;6.00;;;;;23.86;49.24;99200.59;5095258;27;46096;-64
2023/07/05 08:24:03;;;;;;;;;11.25;7.00;;;;;23.87;49.00;99204.16;5093046;27;45517;-64
2023/07/05 08:26:29;;;;;;;;;6.25;6.25;;;;;23.86;49.45;99199.75;5092226;27;46345;-63
2023/07/05 08:28:56;;;;;;;;;7.25;5.00;;;;;23.89;49.60;99194.94;5090188;27;45385;-65
2023/07/05 08:31:22;;;;;;;;;5.20;5.20;;;;;23.88;49.78;99195.06;5088065;27;45509;-63
2023/07/05 08:33:47;;;;;;;;;7.50;6.50;;;;;23.90;50.03;99223.56;5084791;27;45364;-64
2023/07/05 08:36:19;;;;;;;;;5.50;5.50;;;;;23.95;49.77;99197.06;5094580;27;46445;-64
2023/07/05 08:38:52;;;;;;;;;5.00;4.20;;;;;23.98;50.25;99188.66;5092658;27;45544;-65
2023/07/05 08:41:27;;;;;;;;;4.80;4.60;;;;;24.01;50.32;99198.31;5087844;27;45426;-65
2023/07/05 08:43:52;;;;;;;;;6.50;6.50;;;;;24.05;50.40;99193.47;5093717;27;45516;-63
2023/07/05 08:46:20;;;;;;;;;7.00;7.00;;;;;24.05;49.71;99194.34;5093877;27;46337;-63
2023/07/05 08:48:47;;;;;;;;;5.20;5.20;;;;;24.11;50.20;99201.00;5094411;27;45475;-64
2023/07/05 08:51:15;;;;;;;;;5.60;4.80;;;;;24.15;50.57;99202.38;5094773;27;45585;-65
2023/07/05 08:53:51;;;;;;;;;8.00;8.00;;;;;24.20;51.77;99221.66;5094112;27;45423;-63
2023/07/05 08:56:28;;;;;;;;;5.60;5.60;;;;;24.21;52.36;99199.97;5093218;27;45699;-66
2023/07/05 08:59:13;;;;;;;;;5.60;5.60;;;;;24.22;52.69;99192.72;5087843;27;45378;-64
2023/07/05 09:01:40;;;;;;;;;8.20;8.20;;;;;24.19;52.49;99219.97;5090156;27;45616;-65
2023/07/05 09:04:16;;;;;;;;;7.75;7.25;;;;;24.17;52.28;99205.78;5091949;27;45438;-63
2023/07/05 09:06:57;;;;;;;;;7.20;7.00;;;;;24.15;52.19;99214.00;5088550;27;46083;-63
2023/07/05 09:09:50;;;;;;;;;7.80;6.00;;;;;24.13;52.44;99240.25;5092970;27;45469;-65
2023/07/05 09:12:30;;;;;;;;;7.40;7.40;;;;;24.11;52.21;99204.53;5094526;27;45394;-64
2023/07/05 09:14:55;;;;;;;;;11.25;8.00;;;;;24.14;52.34;99206.91;5085869;27;45547;-65
2023/07/05 09:17:45;;;;;;;;;7.00;4.00;;;;;24.18;51.93;99211.03;5093448;27;46138;-64
2023/07/05 09:20:28;;;;;;;;;7.40;5.80;;;;;24.22;51.70;99214.28;5084904;27;45444;-64
2023/07/05 09:22:56;;;;;;;;;7.40;6.00;;;;;24.25;51.62;99219.44;5093825;27;45513;-65
2023/07/05 09:25:23;;;;;;;;;5.75;5.75;;;;;24.22;51.76;99236.69;5086372;27;45624;-64
2023/07/05 09:27:56;;;;;;;;;6.00;5.75;;;;;24.18;52.15;99212.88;5090455;27;46405;-65
2023/07/05 09:30:28;;;;;;;;;7.20;7.20;;;;;24.18;51.87;99221.81;5086412;27;45505;-64
2023/07/05 09:33:17;;;;;;;;;10.00;8.60;;;;;24.20;51.62;99205.50;5086872;27;45404;-64
2023/07/05 09:35:46;;;;;;;;;10.00;8.75;;;;;24.23;52.24;99219.56;5091784;27;45423;-64
2023/07/05 09:38:35;;;;;;;;;12.20;8.80;;;;;24.24;52.07;99212.34;5092584;27;45447;-64
2023/07/05 09:41:05;;;;;;;;;6.40;6.40;;;;;24.26;51.30;99195.03;5089870;27;45387;-64
2023/07/05 09:43:33;;;;;;;;;8.40;8.00;;;;;24.30;50.96;99211.72;5093745;27;45489;-64
2023/07/05 09:46:20;;;;;;;;;7.50;7.50;;;;;24.32;51.54;99202.50;5085936;27;45456;-64
2023/07/05 09:48:47;;;;;;;;;8.50;7.75;;;;;24.35;51.68;99223.78;5078412;27;45681;-64
2023/07/05 09:51:12;;;;;;;;;10.80;7.80;;;;;24.41;51.86;99192.72;5086753;27;45570;-63
2023/07/05 09:53:55;;;;;;;;;11.00;7.75;;;;;24.50;50.66;99223.31;5093015;27;45420;-64
2023/07/05 09:56:29;;;;;;;;;9.50;9.25;;;;;24.46;50.82;99208.44;5088107;27;45420;-63
2023/07/05 09:59:13;;;;;;;;;8.60;6.80;;;;;24.45;51.69;99218.38;5093533;27;46165;-64
2023/07/05 10:01:49;;;;;;;;;7.00;7.00;;;;;24.50;52.12;99207.97;5087520;27;45432;-64
2023/07/05 10:04:16;;;;;;;;;7.80;7.80;;;;;24.58;51.55;99215.34;5090328;27;45446;-65
2023/07/05 10:06:45;;;;;;;;;9.75;7.50;;;;;24.61;51.02;99215.06;5087066;27;45551;-64
2023/07/05 10:09:20;;;;;;;;;12.00;12.00;;;;;24.62;51.91;99220.31;5090000;27;46208;-64
2023/07/05 10:11:48;;;;;;;;;8.40;8.40;;;;;24.67;51.91;99231.47;5088375;27;45355;-64
2023/07/05 10:14:16;;;;;;;;;8.00;7.60;;;;;24.71;52.16;99215.84;5090947;27;45379;-64
2023/07/05 10:16:51;;;;;;;;;9.25;8.00;;;;;24.70;51.93;99215.00;5087223;27;45443;-64
2023/07/05 10:19:24;;;;;;;;;9.60;9.00;;;;;24.64;51.37;99212.88;5081440;27;45513;-63
2023/07/05 10:22:16;;;;;;;;;7.00;7.00;;;;;24.67;52.23;99227.94;5092433;27;45449;-66
2023/07/05 10:24:53;;;;;;;;;10.60;9.40;;;;;24.69;52.48;99216.00;5092366;27;45352;-63
2023/07/05 10:27:26;;;;;;;;;7.00;7.00;;;;;24.78;52.44;99222.38;5090062;27;45503;-64
2023/07/05 10:30:14;;;;;;;;;6.00;6.00;;;;;24.81;51.12;99237.38;5090786;27;45443;-64
2023/07/05 10:32:42;;;;;;;;;7.60;6.20;;;;;24.84;51.94;99194.78;5091562;27;45487;-64
2023/07/05 10:35:24;;;;;;;;;8.20;7.00;;;;;24.87;51.26;99199.88;5095358;27;45504;-64
2023/07/05 10:37:51;;;;;;;;;4.00;4.00;;;;;24.88;51.19;99204.28;5096519;27;45505;-64
2023/07/05 10:40:17;;;;;;;;;7.80;7.20;;;;;24.92;51.07;99215.63;5094202;27;46778;-64
2023/07/05 10:42:50;;;;;;;;;7.25;6.50;;;;;24.89;50.82;99211.38;5094483;27;45570;-64
2023/07/05 10:45:19;;;;;;;;;6.40;5.00;;;;;24.92;51.31;99202.13;5095815;27;45398;-64
2023/07/05 10:47:52;;;;;;;;;6.75;5.25;;;;;24.90;50.59;99245.44;5097001;27;45305;-63
2023/07/05 10:50:30;;;;;;;;;5.20;5.00;;;;;24.85;51.44;99209.97;5095994;27;46469;-65
2023/07/05 10:53:01;;;;;;;;;4.60;3.80;;;;;24.88;52.27;99215.06;5095778;27;45344;-64
2023/07/05 10:55:41;;;;;;;;;5.00;5.00;;;;;24.92;52.04;99194.88;5128323;27;45414;-63
2023/07/05 10:58:16;;;;;;;;;7.60;5.40;;;;;24.93;52.14;99214.63;5095648;27;45364;-65
2023/07/05 11:00:49;;;;;;;;;5.20;3.80;;;;;24.92;52.15;99207.53;5094556;27;46654;-63
2023/07/05 11:03:33;;;;;;;;;5.00;5.00;;;;;24.92;52.21;99226.41;5095523;27;45307;-64
2023/07/05 11:06:03;;;;;;;;;3.20;3.20;;;;;24.89;51.95;99215.91;5095453;27;45535;-64
2023/07/05 11:08:38;;;;;;;;;2.60;2.60;;;;;24.83;52.01;99203.88;5095892;27;45412;-65
2023/07/05 11:11:15;;;;;;;;;3.40;3.00;;;;;24.75;51.99;99203.78;5096105;27;46640;-65
2023/07/05 11:13:42;;;;;;;;;2.20;2.20;;;;;24.70;52.77;99209.59;5095886;27;45557;-65
2023/07/05 11:16:11;;;;;;;;;4.60;4.60;;;;;24.75;52.54;99208.31;5094335;27;45377;-65
2023/07/05 11:18:37;;;;;;;;;0.80;0.80;;;;;24.73;52.32;99205.78;5096397;27;45533;-64
2023/07/05 11:21:02;;;;;;;;;2.25;2.25;;;;;24.68;52.37;99221.53;5096748;27;46429;-64
2023/07/05 11:23:43;;;;;;;;;1.50;1.00;;;;;24.63;52.20;99191.50;5095779;27;45387;-64
2023/07/05 11:26:10;;;;;;;;;3.60;3.00;;;;;24.55;52.74;99210.25;5096747;27;45526;-64
2023/07/05 11:28:43;;;;;;;;;0.20;0.20;;;;;24.50;52.83;99216.06;5096466;27;45372;-65
2023/07/05 11:31:29;;;;;;;;;2.80;2.80;;;;;24.47;52.88;99196.63;5096108;27;46049;-65
2023/07/05 11:34:20;;;;;;;;;2.40;2.40;;;;;24.48;52.29;99219.91;5096626;27;45350;-65
2023/07/05 11:36:49;;;;;;;;;4.80;3.80;;;;;24.47;52.11;99240.63;5096449;27;45448;-65
2023/07/05 11:39:27;;;;;;;;;3.60;3.00;;;;;24.46;52.23;99220.09;5096368;27;45473;-65
2023/07/05 11:41:52;;;;;;;;;3.00;3.00;;;;;24.43;52.39;99190.72;5095976;27;45419;-64